Time;durP1;ratioP1;P1;durP2;ratioP2;P2;SDS_P1;SDS_P2;PMS_P1;PMS_P2;Temp;Humidity;BMP_temperature;BMP_pressure;BME280_temperature;BME280_humidity;BME280_pressure;Samples;Min_cycle;Max_cycle;Signal;HPM_P1;HPM_P2
2023/05/17 00:01:31;;;;;;;11.68;3.83;;;;;;;10.27;100.00;102344.50;5054484;28;20405;-66
2023/05/17 00:03:59;;;;;;;17.20;4.47;;;;;;;10.28;100.00;102347.06;5037836;28;20057;-67
2023/05/17 00:06:27;;;;;;;14.10;3.90;;;;;;;10.31;100.00;102348.50;5027251;28;20060;-66
2023/05/17 00:08:55;;;;;;;14.68;4.18;;;;;;;10.32;100.00;102352.88;5051253;28;20459;-67
2023/05/17 00:11:23;;;;;;;13.57;3.97;;;;;;;10.34;100.00;102361.66;5059980;28;20102;-68
2023/05/17 00:13:51;;;;;;;17.52;4.30;;;;;;;10.32;100.00;102350.13;5057465;28;20049;-67
2023/05/17 00:16:19;;;;;;;15.48;4.15;;;;;;;10.34;100.00;102356.19;5036857;28;20041;-68
2023/05/17 00:18:46;;;;;;;10.15;3.63;;;;;;;10.34;100.00;102353.47;5045481;28;20102;-66
2023/05/17 00:21:15;;;;;;;17.17;4.20;;;;;;;10.35;100.00;102352.44;5053638;28;20055;-66
2023/05/17 00:23:43;;;;;;;13.48;3.75;;;;;;;10.34;100.00;102353.47;5055476;28;20136;-67
2023/05/17 00:26:12;;;;;;;10.93;3.53;;;;;;;10.33;100.00;102349.09;5021447;28;20049;-69
2023/05/17 00:28:40;;;;;;;13.05;3.88;;;;;;;10.31;100.00;102349.31;5053175;28;20049;-66
2023/05/17 00:31:07;;;;;;;11.02;4.00;;;;;;;10.32;100.00;102348.28;5072051;28;20101;-68
2023/05/17 00:33:35;;;;;;;13.98;4.57;;;;;;;10.32;100.00;102350.13;5056490;28;20083;-66
2023/05/17 00:36:03;;;;;;;13.18;3.97;;;;;;;10.30;100.00;102349.56;5073532;28;20138;-66
2023/05/17 00:38:31;;;;;;;11.60;3.85;;;;;;;10.26;100.00;102349.13;5034109;28;20076;-66
2023/05/17 00:40:59;;;;;;;15.07;4.47;;;;;;;10.24;100.00;102352.06;5034216;28;20524;-66
2023/05/17 00:43:27;;;;;;;12.93;3.83;;;;;;;10.20;100.00;102344.63;5052723;28;20053;-67
2023/05/17 00:45:54;;;;;;;14.68;4.45;;;;;;;10.18;100.00;102342.13;5038620;28;20048;-66
2023/05/17 00:48:24;;;;;;;13.57;3.97;;;;;;;10.17;100.00;102340.47;5053665;28;20047;-66
2023/05/17 00:50:54;;;;;;;14.95;4.05;;;;;;;10.17;100.00;102340.47;5054891;28;20119;-67
2023/05/17 00:53:22;;;;;;;11.73;3.80;;;;;;;10.19;100.00;102340.22;5053532;28;20080;-66
2023/05/17 00:55:49;;;;;;;14.40;4.28;;;;;;;10.20;100.00;102347.34;5053236;28;20049;-67
2023/05/17 00:58:17;;;;;;;12.45;4.40;;;;;;;10.19;100.00;102349.22;5052970;28;20536;-66
2023/05/17 01:00:46;;;;;;;15.05;4.40;;;;;;;10.19;100.00;102342.94;5061999;28;20052;-66
2023/05/17 01:03:21;;;;;;;16.23;4.30;;;;;;;10.15;100.00;102345.31;5022280;28;20037;-67
2023/05/17 01:05:50;;;;;;;12.20;4.05;;;;;;;10.15;100.00;102348.03;5054540;28;20118;-69
2023/05/17 01:08:18;;;;;;;14.95;4.43;;;;;;;10.14;100.00;102349.06;5034809;28;20085;-67
2023/05/17 01:10:57;;;;;;;15.18;4.80;;;;;;;10.14;100.00;102345.53;5054711;28;20041;-66
2023/05/17 01:13:35;;;;;;;11.50;4.10;;;;;;;10.13;100.00;102344.69;5032313;28;20041;-67
2023/05/17 01:16:37;;;;;;;14.23;4.78;;;;;;;10.15;100.00;102347.16;5032449;28;20073;-67
2023/05/17 01:19:35;;;;;;;12.07;4.05;;;;;;;10.12;100.00;102353.06;5034561;28;20064;-67
2023/05/17 01:22:14;;;;;;;14.32;4.05;;;;;;;10.08;100.00;102350.00;5016710;28;20045;-67
2023/05/17 01:25:11;;;;;;;14.07;4.38;;;;;;;10.03;100.00;102342.50;5015804;28;20049;-67
2023/05/17 01:27:42;;;;;;;13.85;4.50;;;;;;;10.02;100.00;102353.59;5051087;28;20450;-67
2023/05/17 01:30:12;;;;;;;14.13;4.88;;;;;;;10.00;100.00;102350.28;5041680;28;20050;-66
2023/05/17 01:32:41;;;;;;;15.63;4.55;;;;;;;9.98;100.00;102347.81;5072343;28;20037;-66
2023/05/17 01:35:11;;;;;;;18.02;4.78;;;;;;;9.96;100.00;102346.38;5072466;28;20051;-66
2023/05/17 01:37:39;;;;;;;13.60;4.03;;;;;;;9.95;100.00;102353.69;5072004;28;20087;-67
2023/05/17 01:40:07;;;;;;;18.33;4.97;;;;;;;9.94;100.00;102356.63;5037779;28;20040;-66
2023/05/17 01:42:39;;;;;;;15.02;4.43;;;;;;;9.88;100.00;102352.09;5015957;28;20046;-67
2023/05/17 01:45:25;;;;;;;12.43;3.92;;;;;;;9.85;100.00;102347.09;5015840;28;20095;-67
2023/05/17 01:48:20;;;;;;;14.73;4.30;;;;;;;9.85;100.00;102338.94;5032009;28;20397;-67
2023/05/17 01:50:50;;;;;;;11.57;4.72;;;;;;;9.84;100.00;102342.69;5019080;28;20055;-66
2023/05/17 01:53:22;;;;;;;13.70;4.38;;;;;;;9.86;100.00;102343.31;5027532;28;20052;-67
2023/05/17 01:55:55;;;;;;;12.23;4.10;;;;;;;9.89;100.00;102351.03;5035811;28;20045;-67
2023/05/17 01:58:25;;;;;;;14.32;4.60;;;;;;;9.90;100.00;102347.25;5053005;28;20120;-66
2023/05/17 02:00:55;;;;;;;14.68;4.55;;;;;;;9.90;100.00;102350.81;5020126;28;20212;-67
2023/05/17 02:03:27;;;;;;;13.52;4.30;;;;;;;9.89;100.00;102348.31;5041590;28;20045;-67
2023/05/17 02:05:55;;;;;;;16.70;5.38;;;;;;;9.89;100.00;102348.31;5056647;28;20516;-66
2023/05/17 02:08:22;;;;;;;15.70;4.63;;;;;;;9.89;100.00;102348.31;5038646;28;20552;-67
2023/05/17 02:10:52;;;;;;;16.67;5.25;;;;;;;9.90;100.00;102352.69;5030392;28;20044;-67
2023/05/17 02:13:20;;;;;;;14.07;4.65;;;;;;;9.90;100.00;102344.53;5040852;28;20448;-67
2023/05/17 02:15:47;;;;;;;16.95;4.57;;;;;;;9.87;100.00;102345.00;5008188;28;20048;-68
2023/05/17 02:18:16;;;;;;;18.23;5.03;;;;;;;9.89;100.00;102342.88;5039795;28;20056;-67
2023/05/17 02:20:46;;;;;;;15.50;4.85;;;;;;;9.89;100.00;102348.31;5057224;28;20037;-66
2023/05/17 02:23:13;;;;;;;16.40;4.30;;;;;;;9.87;100.00;102350.44;5035314;28;20049;-68
2023/05/17 02:25:41;;;;;;;14.90;4.65;;;;;;;9.86;100.00;102351.47;5036092;28;20049;-67
2023/05/17 02:28:09;;;;;;;18.90;4.90;;;;;;;9.86;100.00;102340.59;5036987;28;20123;-67
2023/05/17 02:30:40;;;;;;;14.73;5.07;;;;;;;9.87;100.00;102342.28;5045703;28;20041;-67
2023/05/17 02:33:08;;;;;;;16.77;4.78;;;;;;;9.88;100.00;102354.81;5043179;28;20056;-67
2023/05/17 02:35:36;;;;;;;16.13;4.38;;;;;;;9.87;100.00;102353.97;5055082;28;20057;-66
2023/05/17 02:38:04;;;;;;;15.85;4.50;;;;;;;9.87;100.00;102362.16;5038543;28;20048;-67
2023/05/17 02:40:31;;;;;;;14.85;4.55;;;;;;;9.86;100.00;102359.63;5066777;28;20048;-66
2023/05/17 02:43:02;;;;;;;15.90;5.03;;;;;;;9.84;100.00;102357.16;5047479;28;20056;-66
2023/05/17 02:45:30;;;;;;;13.65;4.63;;;;;;;9.84;100.00;102356.31;5036559;28;20116;-67
2023/05/17 02:47:58;;;;;;;14.07;5.00;;;;;;;9.83;100.00;102360.94;5034874;28;20100;-67
2023/05/17 02:50:26;;;;;;;14.20;4.88;;;;;;;9.82;100.00;102357.38;5025039;28;20107;-67
2023/05/17 02:52:53;;;;;;;15.32;5.10;;;;;;;9.85;100.00;102368.88;5039155;28;20033;-66
2023/05/17 02:55:21;;;;;;;14.20;5.30;;;;;;;9.86;100.00;102359.63;5032918;28;20093;-68
2023/05/17 02:57:49;;;;;;;14.15;5.13;;;;;;;9.88;100.00;102363.81;5019127;28;20049;-66
2023/05/17 03:00:17;;;;;;;16.65;5.35;;;;;;;9.89;100.00;102367.38;5019395;28;20497;-66
2023/05/17 03:02:45;;;;;;;14.27;4.90;;;;;;;9.87;100.00;102373.03;5037109;28;20052;-66
2023/05/17 03:05:13;;;;;;;16.30;5.05;;;;;;;9.88;100.00;102368.41;5037670;28;20064;-66
2023/05/17 03:07:46;;;;;;;15.68;4.97;;;;;;;9.89;100.00;102375.56;5048371;28;20102;-65
2023/05/17 03:10:15;;;;;;;22.70;5.28;;;;;;;9.89;100.00;102375.56;5021344;28;20574;-66
2023/05/17 03:12:44;;;;;;;14.75;5.00;;;;;;;9.89;100.00;102365.50;5035890;28;20048;-67
2023/05/17 03:15:13;;;;;;;15.98;4.90;;;;;;;9.89;100.00;102375.56;5011336;28;20132;-67
2023/05/17 03:17:41;;;;;;;15.63;5.75;;;;;;;9.88;100.00;102382.84;5034061;28;20052;-67
2023/05/17 03:20:10;;;;;;;17.17;5.55;;;;;;;9.88;100.00;102384.75;5055693;28;20049;-66
2023/05/17 03:22:37;;;;;;;18.08;5.63;;;;;;;9.89;100.00;102386.44;5053912;28;20045;-68
2023/05/17 03:25:06;;;;;;;16.17;5.25;;;;;;;9.90;100.00;102386.19;5054292;28;20047;-66
2023/05/17 03:27:33;;;;;;;18.27;5.50;;;;;;;9.89;100.00;102392.72;5055010;28;20049;-66
2023/05/17 03:30:01;;;;;;;16.55;5.72;;;;;;;9.89;100.00;102392.72;5019335;28;20060;-66
2023/05/17 03:32:31;;;;;;;15.70;5.07;;;;;;;9.89;100.00;102397.34;5023496;28;20052;-66
2023/05/17 03:34:59;;;;;;;15.57;5.15;;;;;;;9.91;100.00;102400.63;5036171;28;20060;-66
2023/05/17 03:37:28;;;;;;;17.85;6.10;;;;;;;9.89;100.00;102402.78;5033594;28;20087;-66
2023/05/17 03:39:55;;;;;;;17.05;5.72;;;;;;;9.87;100.00;102404.88;5062706;28;20056;-67
2023/05/17 03:42:23;;;;;;;15.55;6.40;;;;;;;9.85;100.00;102404.28;5058185;28;20041;-67
2023/05/17 03:44:52;;;;;;;18.40;6.10;;;;;;;9.85;100.00;102401.53;5017909;28;20050;-65
2023/05/17 03:47:23;;;;;;;17.65;6.25;;;;;;;9.82;100.00;102403.66;5049193;28;20061;-60
2023/05/17 03:49:51;;;;;;;18.23;6.75;;;;;;;9.79;100.00;102409.56;5084052;28;20048;-62
2023/05/17 03:52:19;;;;;;;17.88;5.97;;;;;;;9.78;100.00;102415.22;5074865;28;20056;-67
2023/05/17 03:54:48;;;;;;;19.45;6.35;;;;;;;9.78;100.00;102421.47;5077613;28;20481;-65
2023/05/17 03:57:16;;;;;;;16.40;5.70;;;;;;;9.75;100.00;102415.66;5071404;28;20045;-63
2023/05/17 03:59:44;;;;;;;16.25;5.93;;;;;;;9.75;100.00;102423.84;5074419;28;20175;-65
2023/05/17 04:02:15;;;;;;;16.60;5.78;;;;;;;9.70;100.00;102421.78;5071866;28;20053;-65
2023/05/17 04:04:50;;;;;;;17.77;5.60;;;;;;;9.68;100.00;102421.16;5052265;28;20438;-65
2023/05/17 04:07:18;;;;;;;15.33;5.67;;;;;;;9.70;100.00;102431.84;5035238;28;20433;-66
2023/05/17 04:09:46;;;;;;;15.00;5.43;;;;;;;9.69;100.00;102420.13;5035868;28;20083;-68
2023/05/17 04:12:14;;;;;;;14.35;5.45;;;;;;;9.70;100.00;102426.41;5052637;28;20098;-65
2023/05/17 04:14:42;;;;;;;18.50;6.28;;;;;;;9.71;100.00;102423.44;5036302;28;20420;-67
2023/05/17 04:17:09;;;;;;;17.48;5.47;;;;;;;9.71;100.00;102417.16;5051120;28;20574;-68
2023/05/17 04:19:37;;;;;;;18.40;6.55;;;;;;;9.71;100.00;102423.44;5053469;28;20044;-67
2023/05/17 04:22:05;;;;;;;16.75;6.80;;;;;;;9.70;100.00;102426.41;5040455;28;20100;-67
2023/05/17 04:24:33;;;;;;;13.73;5.78;;;;;;;9.67;100.00;102430.41;5046890;28;20045;-67
2023/05/17 04:27:04;;;;;;;19.13;6.10;;;;;;;9.69;100.00;102436.47;5051170;28;20493;-68
2023/05/17 04:29:31;;;;;;;16.25;6.10;;;;;;;9.71;100.00;102438.94;5047713;28;20058;-67
2023/05/17 04:31:59;;;;;;;20.02;6.18;;;;;;;9.73;100.00;102447.72;5038569;28;20049;-67
2023/05/17 04:34:30;;;;;;;18.45;6.20;;;;;;;9.74;100.00;102450.22;5049558;28;20045;-66
2023/05/17 04:36:59;;;;;;;15.85;6.07;;;;;;;9.74;100.00;102450.22;5020362;28;20432;-67
2023/05/17 04:39:27;;;;;;;14.43;5.63;;;;;;;9.76;100.00;102448.09;5037701;28;20120;-66
2023/05/17 04:41:57;;;;;;;17.02;6.10;;;;;;;9.77;100.00;102455.22;5052828;28;20049;-66
2023/05/17 04:44:26;;;;;;;14.45;5.75;;;;;;;9.79;100.00;102457.72;5053907;28;20056;-66
2023/05/17 04:46:55;;;;;;;18.35;5.60;;;;;;;9.79;100.00;102468.63;5036792;28;20098;-67
2023/05/17 04:49:23;;;;;;;14.82;5.90;;;;;;;9.79;100.00;102471.34;5052629;28;20442;-67
2023/05/17 04:51:52;;;;;;;19.60;5.65;;;;;;;9.81;100.00;102464.63;5032817;28;20148;-66
2023/05/17 04:54:21;;;;;;;15.55;5.93;;;;;;;9.81;100.00;102466.47;5049366;28;20060;-67
2023/05/17 04:56:51;;;;;;;19.75;5.88;;;;;;;9.82;100.00;102474.44;5038688;28;20061;-67
2023/05/17 04:59:37;;;;;;;16.70;6.18;;;;;;;9.81;100.00;102489.13;5018410;28;20130;-67
2023/05/17 05:02:06;;;;;;;15.95;6.00;;;;;;;9.80;100.00;102482.00;5036165;28;20462;-67
2023/05/17 05:04:34;;;;;;;17.35;5.88;;;;;;;9.79;100.00;102476.78;5031713;28;20049;-66
2023/05/17 05:07:02;;;;;;;17.77;5.60;;;;;;;9.80;100.00;102479.25;5032483;28;20069;-67
2023/05/17 05:09:29;;;;;;;19.80;5.93;;;;;;;9.82;100.00;102484.50;5049538;28;20120;-67
2023/05/17 05:11:57;;;;;;;18.25;6.03;;;;;;;9.82;100.00;102479.88;5053642;28;20099;-67
2023/05/17 05:14:25;;;;;;;19.00;5.82;;;;;;;9.85;100.00;102494.09;5034947;28;20514;-67
2023/05/17 05:16:54;;;;;;;22.38;6.40;;;;;;;9.86;100.00;102493.91;5020434;28;20063;-68
2023/05/17 05:19:22;;;;;;;18.05;6.45;;;;;;;9.88;100.00;102497.22;5054567;28;20048;-66
2023/05/17 05:21:52;;;;;;;18.98;6.57;;;;;;;9.89;100.00;102500.78;5042898;28;20124;-66
2023/05/17 05:24:20;;;;;;;22.02;7.60;;;;;;;9.91;100.00;102504.09;5048947;28;20061;-67
2023/05/17 05:26:48;;;;;;;19.90;6.38;;;;;;;9.92;100.00;102508.50;5049328;28;20405;-66
2023/05/17 05:29:18;;;;;;;16.90;6.25;;;;;;;9.94;100.00;102520.00;5033536;28;20437;-67
2023/05/17 05:31:46;;;;;;;20.75;6.40;;;;;;;9.97;100.00;102514.13;5031929;28;20096;-67
2023/05/17 05:34:15;;;;;;;24.55;6.97;;;;;;;9.97;100.00;102516.84;5030763;28;20040;-67
2023/05/17 05:36:43;;;;;;;18.38;6.63;;;;;;;9.95;100.00;102522.50;5053670;28;20116;-67
2023/05/17 05:39:11;;;;;;;18.40;6.90;;;;;;;9.95;100.00;102527.13;5048664;28;20041;-67
2023/05/17 05:41:39;;;;;;;17.38;6.45;;;;;;;9.91;100.00;102517.72;5032104;28;20585;-66
2023/05/17 05:44:07;;;;;;;23.00;6.80;;;;;;;9.92;100.00;102527.56;5031955;28;20045;-66
2023/05/17 05:46:35;;;;;;;17.80;6.10;;;;;;;9.90;100.00;102525.06;4672748;28;10000448;-67
2023/05/17 05:49:04;;;;;;;18.27;6.38;;;;;;;9.91;100.00;102531.31;5048565;28;20056;-66
2023/05/17 05:51:33;;;;;;;23.58;6.78;;;;;;;9.95;100.00;102532.56;5032108;28;20049;-66
2023/05/17 05:54:01;;;;;;;20.02;6.32;;;;;;;9.96;100.00;102529.63;5028522;28;20050;-66
2023/05/17 05:56:29;;;;;;;18.05;6.25;;;;;;;9.98;100.00;102532.09;5048109;28;20049;-67
2023/05/17 05:58:58;;;;;;;18.45;6.43;;;;;;;10.01;100.00;102534.41;5008712;28;20108;-66
2023/05/17 06:01:27;;;;;;;17.67;5.88;;;;;;;10.06;100.00;102547.34;5047224;28;20068;-67
2023/05/17 06:03:55;;;;;;;27.35;6.70;;;;;;;10.11;100.00;102548.34;5030061;28;20068;-66
2023/05/17 06:06:23;;;;;;;15.73;5.88;;;;;;;10.13;100.00;102546.25;5051484;28;20090;-66
2023/05/17 06:08:50;;;;;;;19.85;5.15;;;;;;;10.14;100.00;102547.91;5070988;28;20052;-68
2023/05/17 06:11:19;;;;;;;17.85;5.90;;;;;;;10.17;100.00;102552.91;5045571;28;20061;-67
2023/05/17 06:13:47;;;;;;;23.35;5.43;;;;;;;10.20;100.00;102552.47;5049238;28;20107;-68
2023/05/17 06:16:16;;;;;;;18.90;5.05;;;;;;;10.17;100.00;102569.25;5047275;28;20132;-68
2023/05/17 06:18:44;;;;;;;30.35;6.28;;;;;;;10.12;100.00;102571.78;5068145;28;20485;-68
2023/05/17 06:21:15;;;;;;;25.33;6.28;;;;;;;10.11;100.00;102566.59;5052792;28;20048;-67
2023/05/17 06:23:42;;;;;;;24.88;5.53;;;;;;;10.11;100.00;102564.69;5064666;28;20049;-66
2023/05/17 06:26:10;;;;;;;20.20;5.28;;;;;;;10.13;100.00;102570.75;5038644;28;20053;-67
2023/05/17 06:28:38;;;;;;;25.42;5.65;;;;;;;10.18;98.97;102581.00;5046969;28;20496;-68
2023/05/17 06:31:06;;;;;;;20.63;4.70;;;;;;;10.23;97.68;102586.59;5042464;28;20045;-67
2023/05/17 06:33:33;;;;;;;17.85;4.47;;;;;;;10.26;97.93;102586.16;5029761;28;20803;-68
2023/05/17 06:36:01;;;;;;;19.60;5.10;;;;;;;10.28;96.61;102588.66;5034529;28;20047;-68
2023/05/17 06:38:34;;;;;;;15.98;4.35;;;;;;;10.28;92.43;102575.03;5051786;28;20049;-68
2023/05/17 06:41:02;;;;;;;17.35;4.57;;;;;;;10.30;91.98;102579.25;5053993;28;20041;-66
2023/05/17 06:43:30;;;;;;;15.30;4.65;;;;;;;10.29;90.11;102579.44;5053777;28;20083;-67
2023/05/17 06:45:57;;;;;;;20.15;5.15;;;;;;;10.29;91.35;102584.91;5039263;28;20080;-67
2023/05/17 06:48:25;;;;;;;19.13;4.57;;;;;;;10.31;93.06;102583.63;5061176;28;20052;-67
2023/05/17 06:50:53;;;;;;;20.88;4.55;;;;;;;10.34;91.25;102588.63;5041694;28;20171;-67
2023/05/17 06:53:21;;;;;;;22.60;4.68;;;;;;;10.35;91.16;102581.28;5059758;28;20049;-67
2023/05/17 06:55:49;;;;;;;24.23;5.32;;;;;;;10.38;91.30;102583.56;5059076;28;20045;-67
2023/05/17 06:58:16;;;;;;;22.05;5.28;;;;;;;10.36;90.55;102578.31;5055373;28;20049;-68
2023/05/17 07:00:44;;;;;;;15.85;4.45;;;;;;;10.36;91.05;102577.50;5040557;28;20089;-67
2023/05/17 07:03:12;;;;;;;17.13;3.95;;;;;;;10.37;89.31;102587.34;5055272;28;20056;-68
2023/05/17 07:05:40;;;;;;;20.33;4.70;;;;;;;10.43;90.13;102579.09;5058486;28;20083;-68
2023/05/17 07:08:08;;;;;;;14.30;4.65;;;;;;;10.46;87.24;102588.72;5059524;28;20110;-69
2023/05/17 07:10:35;;;;;;;20.35;4.38;;;;;;;10.49;87.03;102593.75;5053803;28;20107;-67
2023/05/17 07:13:03;;;;;;;16.33;4.45;;;;;;;10.49;85.02;102593.75;5044508;28;20148;-67
2023/05/17 07:15:31;;;;;;;15.07;4.30;;;;;;;10.47;83.04;102590.41;5058979;28;20049;-67
2023/05/17 07:17:58;;;;;;;19.50;4.15;;;;;;;10.47;82.41;102590.41;5068622;28;20055;-67
2023/05/17 07:20:26;;;;;;;20.23;4.57;;;;;;;10.49;82.11;102599.19;5062140;28;20041;-67
2023/05/17 07:22:55;;;;;;;18.40;4.30;;;;;;;10.55;82.06;102590.09;5072793;28;20084;-67
2023/05/17 07:25:22;;;;;;;20.65;4.40;;;;;;;10.64;81.94;102596.13;5059310;28;20053;-67
2023/05/17 07:27:50;;;;;;;16.10;4.60;;;;;;;10.70;82.85;102608.81;5048889;28;20064;-68
2023/05/17 07:30:18;;;;;;;18.02;4.38;;;;;;;10.74;82.20;102606.50;5062436;28;20049;-67
2023/05/17 07:32:46;;;;;;;18.10;4.40;;;;;;;10.78;83.22;102607.72;5052327;28;20044;-68
2023/05/17 07:35:14;;;;;;;19.70;4.20;;;;;;;10.81;83.42;102626.34;5050775;28;20045;-67
2023/05/17 07:37:42;;;;;;;14.93;4.10;;;;;;;10.81;82.68;102612.72;5053459;28;20080;-67
2023/05/17 07:40:10;;;;;;;17.95;4.13;;;;;;;10.83;82.56;102616.88;5068964;28;20044;-68
2023/05/17 07:42:38;;;;;;;18.10;4.30;;;;;;;10.83;83.19;102616.06;5055800;28;20053;-67
2023/05/17 07:45:06;;;;;;;18.02;4.05;;;;;;;10.81;83.12;102612.72;5044573;28;20095;-67
2023/05/17 07:47:37;;;;;;;16.45;3.97;;;;;;;10.79;82.39;102614.84;5043354;28;20104;-67
2023/05/17 07:50:05;;;;;;;16.67;4.03;;;;;;;10.80;80.76;102624.66;5059579;28;20114;-67
2023/05/17 07:52:33;;;;;;;18.40;4.13;;;;;;;10.78;80.52;102621.34;5065073;28;20452;-67
2023/05/17 07:55:02;;;;;;;20.60;4.25;;;;;;;10.83;81.36;102627.78;5073289;28;20051;-67
2023/05/17 07:57:30;;;;;;;14.82;4.13;;;;;;;10.88;81.97;102640.75;5078257;28;20076;-67
2023/05/17 07:59:58;;;;;;;17.38;4.20;;;;;;;10.86;81.52;102626.50;5080684;28;20051;-66
2023/05/17 08:02:26;;;;;;;41.35;7.07;;;;;;;10.85;82.25;102633.03;5065569;28;20095;-66
2023/05/17 08:04:54;;;;;;;30.02;5.25;;;;;;;10.86;82.22;102631.97;5058334;28;20061;-65
2023/05/17 08:07:21;;;;;;;15.25;4.10;;;;;;;10.95;83.33;102627.88;5050677;28;20045;-66
2023/05/17 08:09:49;;;;;;;14.80;3.72;;;;;;;11.02;82.31;102625.94;5053069;28;20068;-66
2023/05/17 08:12:17;;;;;;;18.33;3.97;;;;;;;11.08;80.10;102633.19;5051987;28;20059;-65
2023/05/17 08:14:45;;;;;;;14.65;4.30;;;;;;;11.09;80.61;102625.84;5042336;28;20069;-65
2023/05/17 08:17:14;;;;;;;23.05;4.88;;;;;;;11.09;80.52;102629.41;5051887;28;20098;-66
2023/05/17 08:19:41;;;;;;;15.98;4.18;;;;;;;11.11;81.42;102644.72;5066051;28;20048;-68
2023/05/17 08:22:10;;;;;;;28.00;5.03;;;;;;;11.12;80.84;102646.38;5050797;28;20041;-67
2023/05/17 08:24:37;;;;;;;17.48;4.10;;;;;;;11.08;80.47;102641.38;5033461;28;20041;-66
2023/05/17 08:27:05;;;;;;;16.45;5.03;;;;;;;11.05;78.75;102638.28;5034896;28;20056;-66
2023/05/17 08:29:33;;;;;;;13.45;3.78;;;;;;;11.04;79.47;102637.44;5052151;28;20052;-67
2023/05/17 08:32:03;;;;;;;16.50;4.15;;;;;;;11.07;78.53;102644.34;5038770;28;20135;-66
2023/05/17 08:34:30;;;;;;;15.23;4.22;;;;;;;11.11;80.21;102634.63;5033867;28;20053;-66
2023/05/17 08:36:58;;;;;;;20.38;4.03;;;;;;;11.21;78.69;102634.13;5041972;28;20485;-67
2023/05/17 08:39:26;;;;;;;18.42;3.85;;;;;;;11.26;78.95;102631.53;5061168;28;20048;-67
2023/05/17 08:41:58;;;;;;;14.55;4.13;;;;;;;11.25;75.71;102643.50;5061798;28;20551;-67
2023/05/17 08:44:27;;;;;;;14.45;3.85;;;;;;;11.28;76.89;102640.31;5053580;28;20048;-66
2023/05/17 08:46:58;;;;;;;17.42;3.25;;;;;;;11.25;74.96;102640.78;5052719;28;20048;-68
2023/05/17 08:49:27;;;;;;;14.57;3.60;;;;;;;11.31;75.01;102639.88;5066984;28;20439;-67
2023/05/17 08:51:58;;;;;;;15.68;3.70;;;;;;;11.35;72.48;102641.06;5076579;28;20059;-68
2023/05/17 08:54:26;;;;;;;17.35;4.20;;;;;;;11.39;70.90;102636.00;5052194;28;20057;-68
2023/05/17 08:56:58;;;;;;;14.18;3.45;;;;;;;11.43;70.20;102643.50;5070142;28;20044;-67
2023/05/17 08:59:32;;;;;;;11.32;4.05;;;;;;;11.53;68.84;102642.94;5049111;28;20053;-69
2023/05/17 09:02:00;;;;;;;10.55;3.10;;;;;;;11.61;66.54;102641.78;5041030;28;20057;-68
2023/05/17 09:04:31;;;;;;;12.63;3.40;;;;;;;11.67;64.81;102649.09;5031104;28;20051;-68
2023/05/17 09:06:59;;;;;;;15.35;3.78;;;;;;;11.69;64.92;102653.25;5054341;28;20083;-67
2023/05/17 09:09:27;;;;;;;12.52;3.47;;;;;;;11.69;64.59;102657.88;5070462;28;20097;-67
2023/05/17 09:11:55;;;;;;;12.75;3.53;;;;;;;11.75;65.83;102646.03;5057021;28;20071;-68
2023/05/17 09:14:23;;;;;;;17.95;4.10;;;;;;;11.77;66.80;102654.00;5053187;28;20051;-69
2023/05/17 09:16:58;;;;;;;13.80;3.00;;;;;;;11.80;65.28;102645.31;5052775;28;20132;-68
2023/05/17 09:19:26;;;;;;;11.63;3.17;;;;;;;11.83;65.93;102651.16;5067085;28;20495;-68
2023/05/17 09:21:54;;;;;;;11.80;3.08;;;;;;;11.90;65.45;102651.91;5053881;28;20075;-67
2023/05/17 09:24:28;;;;;;;10.27;2.85;;;;;;;11.91;65.38;102645.41;5069311;28;20072;-68
2023/05/17 09:27:04;;;;;;;14.80;3.40;;;;;;;11.90;65.28;102649.19;5037747;28;20132;-68
2023/05/17 09:29:32;;;;;;;14.02;3.83;;;;;;;11.89;65.02;102658.47;5053651;28;20048;-68
2023/05/17 09:32:17;;;;;;;13.27;3.63;;;;;;;11.94;62.60;102644.94;5016972;28;20107;-66
2023/05/17 09:34:48;;;;;;;14.02;3.33;;;;;;;11.96;62.21;102658.38;5043916;28;20051;-66
2023/05/17 09:37:18;;;;;;;13.70;3.38;;;;;;;11.98;63.29;102645.31;5037411;28;20413;-67
2023/05/17 09:39:46;;;;;;;15.05;3.85;;;;;;;12.06;61.44;102641.41;5066048;28;20056;-66
2023/05/17 09:42:15;;;;;;;13.20;3.58;;;;;;;11.98;62.60;102647.19;5050705;28;20486;-67
2023/05/17 09:44:52;;;;;;;14.50;3.80;;;;;;;11.93;63.47;102642.47;5052439;28;20049;-67
2023/05/17 09:47:25;;;;;;;15.02;3.33;;;;;;;11.90;63.13;102638.25;5036323;28;20135;-67
2023/05/17 09:49:57;;;;;;;12.90;3.00;;;;;;;11.97;61.37;102637.34;5022466;28;20445;-67
2023/05/17 09:52:25;;;;;;;11.30;2.90;;;;;;;12.08;56.48;102648.31;5072423;28;20464;-67
2023/05/17 09:54:55;;;;;;;13.68;3.50;;;;;;;12.11;55.81;102649.75;5056022;28;20496;-66
2023/05/17 09:57:27;;;;;;;11.52;2.92;;;;;;;12.20;54.86;102640.16;5041719;28;20052;-66
2023/05/17 09:59:57;;;;;;;13.77;3.20;;;;;;;12.35;57.67;102648.72;5047499;28;20053;-66
2023/05/17 10:02:30;;;;;;;14.18;3.78;;;;;;;12.43;56.19;102644.81;5052173;28;20132;-66
2023/05/17 10:04:58;;;;;;;12.13;3.45;;;;;;;12.47;57.41;102636.97;5051619;28;20401;-66
2023/05/17 10:07:26;;;;;;;14.77;3.60;;;;;;;12.48;58.85;102638.63;5019079;28;20449;-67
2023/05/17 10:09:55;;;;;;;13.40;3.10;;;;;;;12.47;60.21;102636.97;5053555;28;20040;-68
2023/05/17 10:12:24;;;;;;;14.98;3.38;;;;;;;12.43;60.02;102650.28;5053612;28;20170;-67
2023/05/17 10:14:54;;;;;;;10.68;2.97;;;;;;;12.41;57.40;102654.31;5034022;28;20057;-66
2023/05/17 10:17:23;;;;;;;11.07;3.40;;;;;;;12.48;58.14;102647.69;5044788;28;20124;-67
2023/05/17 10:19:51;;;;;;;12.80;3.10;;;;;;;12.56;55.96;102657.44;5071726;28;20048;-68
2023/05/17 10:22:21;;;;;;;11.30;3.00;;;;;;;12.61;56.54;102654.81;5063409;28;20045;-67
2023/05/17 10:24:51;;;;;;;10.93;3.28;;;;;;;12.69;57.35;102637.22;5055192;28;20068;-67
2023/05/17 10:27:18;;;;;;;13.13;3.28;;;;;;;12.73;58.09;102642.00;5036255;28;20050;-66
2023/05/17 10:29:46;;;;;;;10.18;3.30;;;;;;;12.83;58.64;102641.38;5037608;28;20045;-67
2023/05/17 10:32:21;;;;;;;14.60;3.38;;;;;;;12.91;59.41;102646.50;5036510;28;20049;-67
2023/05/17 10:34:49;;;;;;;11.70;3.00;;;;;;;12.92;59.56;102648.16;5026681;28;20049;-67
2023/05/17 10:37:33;;;;;;;12.27;2.70;;;;;;;12.92;59.92;102650.09;5039969;28;20119;-66
2023/05/17 10:40:01;;;;;;;14.50;3.75;;;;;;;12.86;59.31;102656.50;5075122;28;20048;-68
2023/05/17 10:42:30;;;;;;;16.60;3.47;;;;;;;12.82;59.79;102644.34;5059943;28;20052;-67
2023/05/17 10:45:00;;;;;;;13.95;3.40;;;;;;;12.85;60.45;102641.16;5045429;28;20556;-68
2023/05/17 10:47:32;;;;;;;14.95;3.50;;;;;;;12.88;60.84;102633.28;5017570;28;20131;-66
2023/05/17 10:50:00;;;;;;;13.77;3.40;;;;;;;12.88;59.45;102638.78;5019897;28;20549;-69
2023/05/17 10:52:28;;;;;;;13.90;3.53;;;;;;;12.81;56.98;102629.03;5040276;28;20053;-67
2023/05/17 10:54:59;;;;;;;11.90;3.20;;;;;;;12.89;55.13;102639.59;5003570;28;20042;-67
2023/05/17 10:57:35;;;;;;;15.77;3.30;;;;;;;12.95;54.13;102641.38;5033154;28;20045;-67
2023/05/17 11:00:20;;;;;;;12.07;3.25;;;;;;;12.96;50.98;102637.56;5036948;28;20053;-66
2023/05/17 11:02:49;;;;;;;17.02;3.33;;;;;;;12.92;52.30;102634.50;5035505;28;20045;-68
2023/05/17 11:05:24;;;;;;;12.63;3.40;;;;;;;12.99;55.32;102629.72;5063585;28;20048;-66
2023/05/17 11:08:12;;;;;;;12.13;2.67;;;;;;;13.09;55.46;102631.84;5055418;28;20049;-67
2023/05/17 11:11:16;;;;;;;10.30;2.88;;;;;;;13.14;53.82;102631.97;5055733;28;20056;-66
2023/05/17 11:13:53;;;;;;;11.90;3.05;;;;;;;13.04;53.39;102619.97;5056926;28;20124;-66
2023/05/17 11:16:26;;;;;;;13.23;3.35;;;;;;;13.01;55.56;102621.25;5038441;28;20076;-66
2023/05/17 11:18:57;;;;;;;12.98;3.08;;;;;;;13.12;55.90;102623.16;5038771;28;20045;-67
2023/05/17 11:21:29;;;;;;;11.50;3.40;;;;;;;13.12;54.30;102636.84;5039340;28;20485;-66
2023/05/17 11:24:02;;;;;;;13.63;3.25;;;;;;;13.00;54.35;102633.28;5035070;28;20049;-66
2023/05/17 11:26:33;;;;;;;12.43;2.83;;;;;;;13.00;54.49;102631.38;5035123;28;20050;-66
2023/05/17 11:29:06;;;;;;;14.57;2.83;;;;;;;13.08;52.64;102632.91;5018561;28;20099;-67